Aérodrome :
LOGIN :

S'inscrire | Disclaimer

   EN    FR    IT 

 










Légende :    VFR   VFR Marginal   IFR   IFR Intensif   IFR Très Intensif
Visi : 
Plafond : 
>= 8 km
>= 3000ft
5 à 8 km
1000 à 3000 ft
1500m à 5 km
500 à 1000 ft
800 à 1500m
200 à 500 ft
< 800m
< 200 ft
Symboles :   Orages  Brouillard  Fortes neiges  Fortes précipitations  Vent > 20 kt
SIGMETs :   Divers  Orages  Givrage  Turbulence  Onde Orograph.  Cendres Volcan.






- Altitude de l'aérodrome : 242 ft
- Code IATA : DUB


EIDW - Dublin

DERNIER METAR :
  • 291800Z 04011KT 9999 FEW040 SCT050 03/M02 Q1005 NOSIG

METARs EXPIRÉS :
  • 291730Z 04011KT 9999 FEW020 BKN050 03/M02 Q1005 NOSIG
  • 291700Z 03008KT 9999 FEW020 BKN050 03/M01 Q1004 NOSIG
  • 291630Z 03009KT 9999 FEW018 BKN050 04/M01 Q1004 NOSIG
  • 291600Z 02010KT 9999 FEW014 BKN050 04/M00 Q1004 NOSIG
  • 291530Z 36006KT 9999 FEW010 SCT040 BKN050 04/02 Q1004 NOSIG
  • 291500Z 03006KT 9999 FEW018 BKN040 04/02 Q1005 NOSIG
  • 291430Z 03008KT 9999 FEW015 BKN040 04/02 Q1005 NOSIG
  • 291400Z 02005KT 9999 VCSH FEW012 SCT025 BKN035 04/02 Q1005 NOSIG
  • 291330Z 35008KT 8000 -SHRA FEW012 SCT025 BKN035 05/02 Q1005 NOSIG

TAF TAF EIDW
Valide du 29 à 18h jusqu'au 30 à 18h UTC


291700Z 2918/3018 01008KT 9999 BKN050
BECMG 3001/3003 04008KT
BECMG 3004/3006 07012KT
PROB30
TEMPO 3007/3014 07015G25KT
BECMG 3016/3018 03008KT



MET'MAP, la Météo Aéronautique d'un coup d'oeil ! - Copyright ORBIFLY Décembre 2007 - Disclaimer

ORBIFLY MET'MAP TEAM :

Programmation & Développement : Alexandra Zaïnal
Sur une idée originale de : Baudouin d'Aumeries
Soutien technique & logistique : Manuel Goepfert
Assistance : Marc-Olivier Méhu




SOURCES & CREDITS :

   NOAA